Time;durP1;ratioP1;P1;durP2;ratioP2;P2;SDS_P1;SDS_P2;PMS_P1;PMS_P2;Temp;Humidity;BMP_temperature;BMP_pressure;BME280_temperature;BME280_humidity;BME280_pressure;Samples;Min_cycle;Max_cycle;Signal;HPM_P1;HPM_P2
2023/06/05 00:00:30;;;;;;;2.30;2.07;;;16.50;68.50;;;16.36;50.94;101568.91;5072897;28;20197;-70
2023/06/05 00:03:02;;;;;;;4.50;2.47;;;16.40;68.80;;;16.30;51.53;101572.31;5072794;28;20312;-70
2023/06/05 00:05:34;;;;;;;3.50;2.60;;;16.40;68.80;;;16.22;52.41;101569.66;5073350;28;20281;-70
2023/06/05 00:08:06;;;;;;;3.23;2.60;;;16.30;69.30;;;16.18;51.85;101571.03;5072824;28;20213;-70
2023/06/05 00:10:37;;;;;;;4.57;2.50;;;16.20;69.80;;;16.06;52.03;101570.56;5072775;28;20285;-70
2023/06/05 00:13:11;;;;;;;3.93;2.43;;;16.10;70.00;;;15.94;51.96;101565.75;5072691;28;20232;-70
2023/06/05 00:15:43;;;;;;;3.00;2.70;;;15.90;70.80;;;15.97;52.15;101568.09;5072527;28;20224;-70
2023/06/05 00:18:15;;;;;;;3.23;2.60;;;16.00;71.00;;;15.95;52.66;101562.03;5072795;28;20285;-70
2023/06/05 00:20:47;;;;;;;6.33;2.63;;;16.00;71.90;;;16.07;52.88;101571.41;5072912;28;20252;-70
2023/06/05 00:23:19;;;;;;;3.07;2.60;;;16.20;70.90;;;16.10;52.15;101574.63;5073219;28;20292;-70
2023/06/05 00:25:51;;;;;;;5.50;2.80;;;16.20;70.70;;;15.98;53.00;101567.94;5087553;28;20186;-70
2023/06/05 00:28:24;;;;;;;3.50;2.57;;;16.00;71.00;;;15.94;53.37;101563.03;5089127;28;20301;-70
2023/06/05 00:30:57;;;;;;;4.90;3.00;;;16.00;71.10;;;15.81;53.23;101560.91;5078890;28;20609;-71
2023/06/05 00:33:30;;;;;;;5.57;2.80;;;15.90;71.60;;;15.72;53.46;101557.38;5072554;28;20225;-71
2023/06/05 00:36:02;;;;;;;4.17;2.57;;;15.80;72.10;;;15.64;53.61;101557.44;5074794;28;20210;-71
2023/06/05 00:38:34;;;;;;;3.73;2.50;;;15.70;72.60;;;15.64;53.81;101559.28;5076071;28;20281;-71
2023/06/05 00:41:06;;;;;;;3.37;2.90;;;15.80;72.70;;;15.64;53.52;101554.72;5076754;28;20275;-71
2023/06/05 00:43:41;;;;;;;3.67;2.90;;;15.90;72.70;;;15.63;54.17;101552.19;5075598;28;20717;-71
2023/06/05 00:46:14;;;;;;;4.93;3.00;;;15.70;72.90;;;15.50;54.48;101552.75;5075920;28;20285;-71
2023/06/05 00:48:48;;;;;;;3.17;2.70;;;15.70;73.20;;;15.50;54.32;101568.94;5075596;28;20665;-71
2023/06/05 00:51:21;;;;;;;5.20;2.83;;;15.70;73.20;;;15.44;54.30;101564.19;5075831;28;20197;-71
2023/06/05 00:53:53;;;;;;;3.43;2.47;;;15.50;73.60;;;15.36;54.86;101558.81;5076183;28;20235;-71
2023/06/05 00:56:25;;;;;;;5.27;2.70;;;15.50;73.80;;;15.23;55.16;101559.34;5075654;28;20312;-71
2023/06/05 00:58:59;;;;;;;3.63;2.50;;;15.30;74.30;;;15.21;55.18;101555.09;5075651;28;20200;-71
2023/06/05 01:01:33;;;;;;;4.00;2.60;;;15.20;74.80;;;15.08;55.65;101557.47;5075582;28;20193;-71
2023/06/05 01:04:05;;;;;;;5.70;2.90;;;15.20;74.70;;;15.08;55.26;101552.94;5075600;28;20254;-71
2023/06/05 01:06:40;;;;;;;4.53;2.90;;;15.20;75.00;;;15.03;55.33;101557.16;5075518;28;20281;-71
2023/06/05 01:09:14;;;;;;;4.43;2.83;;;15.10;75.30;;;15.04;55.46;101553.44;5075213;28;20624;-71
2023/06/05 01:11:54;;;;;;;4.30;2.90;;;15.10;75.70;;;14.80;56.13;101558.81;5075355;28;20229;-71
2023/06/05 01:14:32;;;;;;;4.37;2.70;;;15.00;75.60;;;14.72;56.22;101557.00;5075410;28;20268;-71
2023/06/05 01:17:08;;;;;;;3.77;2.97;;;14.90;76.80;;;14.81;55.79;101555.13;5074949;28;20231;-71
2023/06/05 01:19:41;;;;;;;3.67;3.00;;;15.00;76.10;;;14.83;55.94;101550.44;5075019;28;20280;-71
2023/06/05 01:22:13;;;;;;;4.47;3.23;;;14.90;76.50;;;14.66;56.19;101546.84;5074949;28;20327;-71
2023/06/05 01:24:47;;;;;;;4.90;3.20;;;14.70;77.00;;;14.67;56.64;101554.78;5075291;28;20194;-71
2023/06/05 01:27:26;;;;;;;4.00;2.90;;;14.80;77.10;;;14.54;56.25;101554.44;5075262;28;20186;-71
2023/06/05 01:30:07;;;;;;;4.47;2.80;;;14.70;77.30;;;14.60;56.82;101558.31;5075084;28;20284;-71
2023/06/05 01:32:47;;;;;;;4.63;3.00;;;14.70;77.60;;;14.38;57.71;101549.03;5075070;28;20252;-71
2023/06/05 01:35:21;;;;;;;4.43;3.13;;;14.60;78.10;;;14.31;56.93;101547.97;5074774;28;20604;-71
2023/06/05 01:37:54;;;;;;;4.43;2.80;;;14.60;77.70;;;14.38;56.95;101548.19;5074937;28;20209;-71
2023/06/05 01:40:31;;;;;;;3.37;2.60;;;14.60;78.00;;;14.24;58.06;101552.34;5075356;28;20598;-71
2023/06/05 01:43:06;;;;;;;3.17;2.83;;;14.40;78.90;;;14.23;57.72;101550.63;5074535;28;20759;-71
2023/06/05 01:45:40;;;;;;;5.10;2.90;;;14.40;78.80;;;14.32;57.11;101549.63;5074494;28;20280;-71
2023/06/05 01:48:12;;;;;;;4.00;3.10;;;14.50;79.10;;;14.26;57.86;101554.84;5074766;28;20281;-71
2023/06/05 01:50:44;;;;;;;3.50;2.70;;;14.50;79.30;;;14.25;56.94;101548.59;5074398;28;20537;-71
2023/06/05 01:53:16;;;;;;;5.13;2.77;;;14.50;78.90;;;14.14;57.59;101540.84;5074617;28;20343;-71
2023/06/05 01:55:52;;;;;;;6.60;3.10;;;14.30;79.80;;;14.09;57.77;101540.50;5074586;28;20272;-71
2023/06/05 01:58:26;;;;;;;7.30;3.30;;;14.30;80.00;;;13.94;58.54;101540.25;5074620;28;20280;-71
2023/06/05 02:00:57;;;;;;;4.13;2.97;;;14.20;79.90;;;14.03;57.97;101549.22;5074248;28;20232;-71
2023/06/05 02:03:31;;;;;;;4.43;2.80;;;14.20;80.40;;;13.95;58.26;101551.88;5074402;28;20229;-71
2023/06/05 02:06:03;;;;;;;5.70;3.10;;;14.10;80.60;;;13.94;58.47;101539.44;5074448;28;20225;-71
2023/06/05 02:08:35;;;;;;;5.47;3.40;;;14.10;80.70;;;13.80;59.19;101545.44;5074059;28;20189;-71
2023/06/05 02:11:09;;;;;;;4.67;2.97;;;14.00;81.10;;;13.81;58.85;101544.41;5074347;28;20278;-71
2023/06/05 02:13:43;;;;;;;4.73;2.90;;;14.00;81.90;;;13.78;58.74;101542.06;5074236;28;20247;-71
2023/06/05 02:16:17;;;;;;;5.27;2.90;;;14.00;81.80;;;13.78;59.01;101545.59;5073689;28;20677;-71
2023/06/05 02:18:48;;;;;;;3.40;2.87;;;14.00;82.10;;;13.80;58.85;101542.75;5074169;28;20193;-71
2023/06/05 02:21:20;;;;;;;5.40;2.63;;;14.10;81.60;;;13.75;58.95;101539.69;5073823;28;20685;-71
2023/06/05 02:23:53;;;;;;;5.60;3.10;;;14.00;83.50;;;13.63;59.48;101539.16;5074058;28;20194;-70
2023/06/05 02:26:27;;;;;;;6.37;3.53;;;13.90;83.70;;;13.52;59.63;101534.88;5073727;28;20578;-70
2023/06/05 02:29:00;;;;;;;3.67;2.67;;;13.70;83.20;;;13.45;60.33;101541.91;5074003;28;20189;-70
2023/06/05 02:31:33;;;;;;;4.67;3.10;;;13.70;83.20;;;13.57;59.53;101543.31;5073873;28;20189;-70
2023/06/05 02:34:06;;;;;;;3.57;2.70;;;13.80;83.80;;;13.41;60.06;101537.84;5073917;28;20189;-70
2023/06/05 02:36:38;;;;;;;3.10;2.70;;;13.60;83.50;;;13.46;59.66;101542.75;5073756;28;20263;-70
2023/06/05 02:39:10;;;;;;;3.80;3.07;;;13.70;83.90;;;13.44;60.07;101542.91;5073738;28;20302;-70
2023/06/05 02:41:44;;;;;;;4.37;3.33;;;13.70;84.00;;;13.32;60.35;101544.16;5073361;28;20229;-70
2023/06/05 02:44:16;;;;;;;4.20;2.80;;;13.60;84.40;;;13.25;59.81;101537.75;5073408;28;20193;-70
2023/06/05 02:46:48;;;;;;;3.33;3.03;;;13.60;84.80;;;13.16;59.82;101538.66;5073346;28;20182;-70
2023/06/05 02:49:20;;;;;;;6.63;3.40;;;13.40;84.80;;;13.19;60.37;101538.34;5073974;28;20190;-70
2023/06/05 02:51:51;;;;;;;5.60;3.37;;;13.40;85.60;;;13.23;60.96;101542.41;5073228;28;20776;-70
2023/06/05 02:54:28;;;;;;;4.70;3.20;;;13.50;85.50;;;13.12;61.15;101543.53;5073538;28;20221;-70
2023/06/05 02:57:01;;;;;;;4.20;2.63;;;13.50;86.10;;;12.97;61.83;101549.59;5073246;28;20209;-70
2023/06/05 02:59:32;;;;;;;5.17;3.23;;;13.30;86.80;;;13.12;61.59;101548.06;5073198;28;20209;-70
2023/06/05 03:02:04;;;;;;;5.00;3.30;;;13.40;86.90;;;13.10;60.51;101548.22;5073070;28;20256;-71
2023/06/05 03:04:39;;;;;;;6.20;3.43;;;13.30;86.80;;;12.91;61.87;101534.09;5073508;28;20225;-72
2023/06/05 03:07:13;;;;;;;4.47;3.20;;;13.20;87.30;;;12.98;61.84;101541.38;5073485;28;20612;-72
2023/06/05 03:09:44;;;;;;;4.70;3.30;;;13.40;87.60;;;12.98;61.41;101541.38;5073506;28;20232;-71
2023/06/05 03:12:18;;;;;;;6.70;3.13;;;13.40;87.30;;;12.93;61.45;101537.47;5073319;28;20279;-71
2023/06/05 03:14:50;;;;;;;5.30;3.13;;;13.20;88.70;;;12.91;61.63;101529.53;5073150;28;20633;-71
2023/06/05 03:17:20;;;;;;;5.83;3.43;;;13.30;88.60;;;12.87;61.31;101521.97;5073136;28;20260;-71
2023/06/05 03:19:52;;;;;;;5.97;3.33;;;13.10;88.80;;;12.77;63.27;101531.97;5073499;28;20192;-72
2023/06/05 03:22:24;;;;;;;5.90;3.60;;;13.00;89.30;;;12.70;62.20;101537.94;5073254;28;20737;-71
2023/06/05 03:24:57;;;;;;;8.17;3.97;;;12.90;89.60;;;12.66;63.32;101536.59;5073359;28;20190;-72
2023/06/05 03:27:30;;;;;;;4.80;3.47;;;12.90;90.50;;;12.65;62.79;101539.41;5073113;28;20645;-72
2023/06/05 03:30:02;;;;;;;4.83;3.37;;;12.90;90.70;;;12.66;62.69;101541.97;5073313;28;20268;-72
2023/06/05 03:32:34;;;;;;;5.57;3.83;;;13.00;90.60;;;12.65;63.26;101534.03;5073180;28;20256;-71
2023/06/05 03:35:07;;;;;;;3.97;3.33;;;12.90;90.60;;;12.63;63.13;101539.59;5073181;28;20198;-71
2023/06/05 03:37:39;;;;;;;5.07;3.63;;;12.90;90.90;;;12.59;63.42;101524.78;5072825;28;20649;-71
2023/06/05 03:40:12;;;;;;;5.30;3.77;;;12.90;91.20;;;12.63;63.83;101528.00;5073060;28;20189;-72
2023/06/05 03:42:46;;;;;;;4.80;3.43;;;12.90;91.00;;;12.58;63.54;101531.13;5072974;28;20374;-72
2023/06/05 03:45:18;;;;;;;6.23;3.63;;;13.00;91.40;;;12.57;64.25;101532.13;5071847;28;20725;-72
2023/06/05 03:47:50;;;;;;;4.53;3.67;;;12.90;91.40;;;12.52;64.01;101531.75;5071529;28;20255;-71
2023/06/05 03:50:23;;;;;;;6.37;3.70;;;12.90;91.60;;;12.47;64.42;101531.34;5072977;28;20239;-66
2023/06/05 03:53:02;;;;;;;4.60;3.47;;;12.80;91.80;;;12.43;64.42;101534.53;5072954;28;20229;-70
2023/06/05 03:55:40;;;;;;;5.10;3.53;;;12.70;91.90;;;12.36;65.00;101531.59;5072628;28;20617;-71
2023/06/05 03:58:17;;;;;;;4.80;3.77;;;12.80;92.20;;;12.37;65.39;101535.97;5072846;28;20296;-71
2023/06/05 04:00:51;;;;;;;5.97;3.97;;;12.70;92.90;;;12.36;65.10;101528.06;5072892;28;20220;-71
2023/06/05 04:03:23;;;;;;;4.77;3.67;;;12.70;92.70;;;12.38;65.97;101529.59;5072787;28;20228;-71
2023/06/05 04:05:55;;;;;;;6.13;3.73;;;12.70;92.90;;;12.33;65.31;101534.56;5072826;28;20201;-71
2023/06/05 04:08:27;;;;;;;4.83;3.60;;;12.60;93.10;;;12.39;65.11;101539.34;5072845;28;20273;-71
2023/06/05 04:10:58;;;;;;;5.40;3.97;;;12.70;93.10;;;12.39;65.29;101536.66;5076579;28;20201;-71
2023/06/05 04:13:32;;;;;;;5.93;4.43;;;12.70;93.00;;;12.29;66.54;101538.56;5076490;28;20229;-72
2023/06/05 04:16:04;;;;;;;5.57;3.73;;;12.60;93.30;;;12.09;66.67;101539.66;5076308;28;20669;-71
2023/06/05 04:18:36;;;;;;;6.40;4.10;;;12.40;93.90;;;12.18;67.28;101541.47;5076292;28;20219;-71
2023/06/05 04:21:07;;;;;;;7.40;4.43;;;12.60;94.00;;;12.23;66.80;101538.31;5076061;28;20284;-72
2023/06/05 04:23:39;;;;;;;5.10;4.00;;;12.60;93.80;;;12.23;66.57;101541.84;5076266;28;20313;-72
2023/06/05 04:26:11;;;;;;;7.40;4.10;;;12.60;93.80;;;12.26;67.47;101544.22;5076778;28;20208;-71
2023/06/05 04:28:45;;;;;;;7.13;4.50;;;12.60;94.30;;;12.22;67.23;101542.88;5076241;28;20193;-72
2023/06/05 04:31:17;;;;;;;6.33;4.40;;;12.60;94.30;;;12.14;67.60;101546.28;5076705;28;20213;-71
2023/06/05 04:33:48;;;;;;;7.67;4.53;;;12.50;94.60;;;12.15;67.88;101547.16;5075786;28;20615;-71
2023/06/05 04:36:20;;;;;;;6.37;4.43;;;12.50;95.10;;;12.20;67.27;101555.56;5076128;28;20293;-72
2023/06/05 04:38:52;;;;;;;7.60;4.33;;;12.70;94.90;;;12.17;68.01;101550.50;5075960;28;20260;-72
2023/06/05 04:41:25;;;;;;;5.87;4.27;;;12.60;95.20;;;12.23;68.08;101547.22;5075958;28;20276;-71
2023/06/05 04:43:59;;;;;;;7.90;4.43;;;12.60;95.40;;;12.21;68.59;101546.53;5076179;28;20285;-73
2023/06/05 04:46:31;;;;;;;8.07;4.50;;;12.80;95.80;;;12.23;68.13;101546.38;5075662;28;20733;-72
2023/06/05 04:49:04;;;;;;;8.93;4.50;;;12.70;95.60;;;12.26;68.33;101543.41;5075587;28;20556;-72
2023/06/05 04:51:36;;;;;;;6.60;4.63;;;12.70;95.70;;;12.30;68.87;101550.13;5075700;28;20217;-72
2023/06/05 04:54:09;;;;;;;8.40;4.70;;;12.80;95.80;;;12.24;69.14;101545.38;5075789;28;20272;-72
2023/06/05 04:56:41;;;;;;;8.67;5.13;;;12.70;95.90;;;12.29;68.75;101543.94;5075778;28;20221;-72
2023/06/05 04:59:14;;;;;;;5.70;4.70;;;12.70;96.10;;;12.30;68.65;101545.63;5075335;28;20689;-72
2023/06/05 05:01:48;;;;;;;6.60;4.83;;;12.80;96.00;;;12.31;68.95;101546.47;5075603;28;20229;-72
2023/06/05 05:04:24;;;;;;;8.93;5.20;;;12.80;96.40;;;12.29;69.39;101543.09;5075641;28;20221;-72
2023/06/05 05:07:01;;;;;;;8.77;4.77;;;12.90;96.80;;;12.28;70.27;101539.56;5075596;28;20201;-72
2023/06/05 05:09:34;;;;;;;13.70;5.90;;;12.70;97.10;;;12.21;71.03;101541.16;5075579;28;20191;-72
2023/06/05 05:12:07;;;;;;;8.93;5.23;;;12.70;97.40;;;12.30;70.50;101540.25;5075456;28;20233;-72
2023/06/05 05:14:42;;;;;;;7.90;5.63;;;12.80;97.30;;;12.29;71.38;101549.31;5075085;28;20607;-72
2023/06/05 05:17:16;;;;;;;10.27;5.67;;;12.80;97.50;;;12.35;69.64;101548.69;5075200;28;20671;-73
2023/06/05 05:19:48;;;;;;;8.03;4.87;;;12.90;97.30;;;12.35;70.92;101543.34;5075327;28;20205;-72
2023/06/05 05:22:20;;;;;;;9.87;5.80;;;13.00;97.70;;;12.35;71.34;101551.38;5074546;28;20236;-72
2023/06/05 05:24:52;;;;;;;9.03;5.20;;;12.90;98.10;;;12.22;72.12;101542.00;5075278;28;20239;-72
2023/06/05 05:27:24;;;;;;;10.03;5.50;;;12.70;98.80;;;12.26;72.16;101541.53;5074919;28;20209;-72
2023/06/05 05:29:57;;;;;;;13.20;5.67;;;12.90;98.90;;;12.29;71.76;101541.25;5075133;28;20225;-72
2023/06/05 05:32:29;;;;;;;6.53;5.40;;;12.80;98.80;;;12.34;71.83;101544.31;5074713;28;20231;-72
2023/06/05 05:35:02;;;;;;;10.27;5.20;;;12.90;99.10;;;12.41;71.91;101549.91;5075137;28;20194;-72
2023/06/05 05:37:35;;;;;;;8.33;5.77;;;13.10;99.00;;;12.37;73.03;101541.31;5074988;28;20200;-72
2023/06/05 05:40:08;;;;;;;12.97;6.43;;;13.00;99.40;;;12.34;72.68;101544.31;5075024;28;20185;-72
2023/06/05 05:42:40;;;;;;;8.63;5.93;;;12.90;99.80;;;12.38;73.23;101548.41;5074833;28;20312;-72
2023/06/05 05:45:14;;;;;;;9.13;6.00;;;13.10;99.90;;;12.40;73.15;101554.44;5074538;28;20636;-72
2023/06/05 05:47:46;;;;;;;8.17;5.87;;;13.00;99.90;;;12.44;73.19;101547.78;5074494;28;20642;-72
2023/06/05 05:50:18;;;;;;;9.53;5.80;;;13.10;99.80;;;12.56;73.19;101543.03;5074731;28;20197;-72
2023/06/05 05:52:51;;;;;;;10.17;5.50;;;13.20;99.80;;;12.65;71.93;101544.78;5074643;28;20221;-72
2023/06/05 05:55:23;;;;;;;7.10;4.50;;;13.30;99.70;;;12.66;71.73;101550.03;5074658;28;20239;-72
2023/06/05 05:57:55;;;;;;;9.33;6.23;;;13.30;99.90;;;12.73;72.87;101552.09;5074544;28;20272;-72
2023/06/05 06:00:29;;;;;;;7.77;5.13;;;13.40;99.90;;;12.78;71.37;101549.75;5074561;28;20284;-72
2023/06/05 06:03:01;;;;;;;8.03;5.80;;;13.40;99.80;;;12.78;72.80;101555.13;5074383;28;20229;-72
2023/06/05 06:05:33;;;;;;;11.33;6.03;;;13.40;99.90;;;12.81;72.24;101555.66;5074421;28;20271;-72
2023/06/05 06:08:05;;;;;;;7.37;5.07;;;13.40;99.90;;;12.83;72.07;101547.47;5074819;28;20513;-72
2023/06/05 06:10:37;;;;;;;10.63;5.67;;;13.40;99.90;;;12.92;71.23;101549.22;5074302;28;20198;-72
2023/06/05 06:13:10;;;;;;;11.37;4.97;;;13.60;99.90;;;12.93;70.94;101554.44;5074722;28;20348;-72
2023/06/05 06:15:43;;;;;;;10.40;5.10;;;13.70;99.40;;;13.00;71.25;101543.91;5074065;28;20190;-73
2023/06/05 06:18:15;;;;;;;6.90;4.47;;;13.60;99.50;;;13.05;69.00;101553.19;5074172;28;20228;-73
2023/06/05 06:20:47;;;;;;;12.57;5.73;;;13.70;99.10;;;13.13;69.79;101557.81;5074132;28;20317;-73
2023/06/05 06:23:18;;;;;;;17.87;6.13;;;13.80;98.10;;;13.14;71.01;101560.34;5074047;28;20257;-73
2023/06/05 06:25:51;;;;;;;10.23;4.60;;;13.80;98.70;;;13.23;70.62;101558.56;5074071;28;20186;-73
2023/06/05 06:28:23;;;;;;;5.97;4.47;;;13.90;98.90;;;13.29;69.62;101555.22;5074019;28;20204;-73
2023/06/05 06:30:57;;;;;;;13.80;5.60;;;14.00;98.30;;;13.37;69.63;101547.22;5073970;28;20284;-72
2023/06/05 06:33:29;;;;;;;13.17;4.80;;;14.00;98.10;;;13.44;68.88;101559.03;5072690;28;20717;-71
2023/06/05 06:36:02;;;;;;;25.87;6.63;;;14.10;98.10;;;13.50;69.53;101553.00;5073852;28;20185;-71
2023/06/05 06:38:34;;;;;;;10.57;5.30;;;14.20;98.20;;;13.58;69.53;101565.66;5073754;28;20216;-71
2023/06/05 06:41:06;;;;;;;14.83;5.40;;;14.20;98.00;;;13.62;69.68;101558.97;5073560;28;20189;-71
2023/06/05 06:43:38;;;;;;;18.47;5.90;;;14.30;97.70;;;13.59;69.18;101557.47;5073679;28;20235;-71
2023/06/05 06:46:11;;;;;;;17.50;5.80;;;14.20;97.80;;;13.67;69.41;101559.31;5073738;28;20272;-71
2023/06/05 06:48:43;;;;;;;15.10;5.23;;;14.30;97.60;;;13.79;69.23;101552.66;5073691;28;20559;-71
2023/06/05 06:51:15;;;;;;;18.13;5.17;;;14.40;97.00;;;13.86;69.12;101563.63;5073670;28;20189;-71
2023/06/05 06:53:48;;;;;;;16.63;5.60;;;14.50;96.90;;;13.92;68.92;101562.97;5073299;28;20284;-71
2023/06/05 06:56:20;;;;;;;12.07;5.43;;;14.50;96.60;;;14.02;69.02;101561.84;5073586;28;20602;-71
2023/06/05 06:58:51;;;;;;;9.57;5.40;;;14.60;96.50;;;14.09;69.93;101570.97;5073168;28;20248;-71
2023/06/05 07:01:25;;;;;;;13.83;4.63;;;14.80;96.70;;;14.14;69.53;101568.59;5073443;28;20190;-70
2023/06/05 07:03:57;;;;;;;9.23;4.90;;;14.80;96.40;;;14.21;68.35;101569.63;5073513;28;20204;-70
2023/06/05 07:06:29;;;;;;;8.10;4.57;;;14.80;96.00;;;14.25;67.45;101564.75;5073470;28;20288;-70
2023/06/05 07:09:00;;;;;;;7.90;5.10;;;14.80;95.50;;;14.34;65.35;101563.00;5073413;28;20221;-70
2023/06/05 07:11:32;;;;;;;9.73;4.87;;;15.00;94.40;;;14.46;64.75;101562.50;5073277;28;20190;-70
2023/06/05 07:14:04;;;;;;;8.97;4.30;;;15.00;93.90;;;14.50;67.49;101560.31;5073393;28;20186;-71
2023/06/05 07:16:38;;;;;;;13.13;4.73;;;15.10;95.40;;;14.57;66.19;101559.50;5072830;28;20678;-71
2023/06/05 07:19:10;;;;;;;13.13;4.50;;;15.10;94.80;;;14.63;66.57;101564.22;5073273;28;20256;-71
2023/06/05 07:21:41;;;;;;;8.70;4.20;;;15.20;94.80;;;14.73;65.67;101554.13;5073230;28;20194;-71
2023/06/05 07:24:14;;;;;;;16.77;5.10;;;15.40;94.30;;;14.81;67.11;101561.38;5073286;28;20276;-71
2023/06/05 07:26:46;;;;;;;8.47;4.40;;;15.50;94.90;;;14.90;64.95;101570.28;5073252;28;20205;-71
2023/06/05 07:29:18;;;;;;;11.07;4.20;;;15.50;94.10;;;14.96;64.30;101565.09;5073213;28;20190;-71
2023/06/05 07:31:52;;;;;;;11.40;3.90;;;15.60;93.30;;;15.06;64.38;101559.53;5073134;28;20239;-71
2023/06/05 07:34:25;;;;;;;11.33;3.67;;;15.80;93.50;;;15.17;60.70;101556.47;5072882;28;20232;-71
2023/06/05 07:36:58;;;;;;;9.00;3.30;;;15.70;91.10;;;15.23;60.91;101563.88;5073156;28;20186;-71
2023/06/05 07:39:30;;;;;;;8.80;4.40;;;15.80;91.40;;;15.31;60.51;101557.66;5073002;28;20205;-71
2023/06/05 07:42:02;;;;;;;8.47;4.30;;;15.90;91.20;;;15.36;62.21;101561.50;5072997;28;20256;-71
2023/06/05 07:44:35;;;;;;;8.70;4.87;;;16.00;92.10;;;15.47;61.18;101558.44;5074618;28;20220;-71
2023/06/05 07:47:09;;;;;;;10.10;4.27;;;16.10;91.60;;;15.61;60.95;101557.78;5077152;28;20196;-71
2023/06/05 07:49:40;;;;;;;11.10;4.40;;;16.20;91.60;;;15.76;59.97;101555.16;5077066;28;20274;-71
2023/06/05 07:52:12;;;;;;;9.13;4.33;;;16.40;91.00;;;15.86;61.30;101557.66;5076651;28;20592;-71
2023/06/05 07:54:44;;;;;;;6.43;3.90;;;16.50;91.30;;;16.06;59.67;101567.88;5076670;28;20198;-71
2023/06/05 07:57:17;;;;;;;9.93;4.20;;;16.70;91.20;;;16.08;59.21;101565.00;5076930;28;20193;-71
2023/06/05 07:59:50;;;;;;;11.73;4.30;;;16.70;90.80;;;16.22;59.15;101558.88;5076811;28;20241;-71
2023/06/05 08:02:23;;;;;;;14.30;4.13;;;16.80;90.60;;;16.32;58.33;101558.63;5076755;28;20312;-71
2023/06/05 08:04:55;;;;;;;8.83;4.00;;;16.90;90.20;;;16.48;58.00;101556.66;5076478;28;20220;-71
2023/06/05 08:07:27;;;;;;;7.70;3.90;;;17.00;90.10;;;16.51;56.67;101559.00;5076392;28;20201;-71
2023/06/05 08:09:59;;;;;;;8.03;4.33;;;17.20;90.00;;;16.64;57.33;101562.00;5076353;28;20707;-71
2023/06/05 08:12:31;;;;;;;7.63;4.00;;;17.20;89.30;;;16.67;59.16;101558.97;5076508;28;20283;-71
2023/06/05 08:15:03;;;;;;;7.70;3.80;;;17.30;90.90;;;16.76;58.43;101550.75;5076580;28;20186;-71
2023/06/05 08:17:36;;;;;;;10.63;3.80;;;17.30;90.80;;;16.78;58.79;101549.56;5076131;28;20580;-71
2023/06/05 08:20:10;;;;;;;4.80;3.70;;;17.50;90.80;;;17.01;56.96;101542.28;5076409;28;20209;-71
2023/06/05 08:22:43;;;;;;;6.57;3.37;;;17.60;89.20;;;17.20;55.17;101544.44;5076356;28;20229;-71
2023/06/05 08:25:14;;;;;;;7.63;3.37;;;17.80;88.20;;;17.22;57.17;101542.41;5076385;28;20220;-71
2023/06/05 08:27:46;;;;;;;8.70;3.27;;;17.90;88.60;;;17.31;57.19;101536.91;5076066;28;20221;-71
2023/06/05 08:30:18;;;;;;;7.50;3.37;;;17.90;87.10;;;17.47;55.59;101540.28;5076273;28;20292;-71
2023/06/05 08:32:51;;;;;;;7.30;3.00;;;18.10;87.00;;;17.63;54.83;101533.88;5076125;28;20320;-71
2023/06/05 08:35:23;;;;;;;5.97;3.73;;;18.20;86.30;;;17.72;54.76;101540.88;5075861;28;20198;-71
2023/06/05 08:37:55;;;;;;;5.40;3.50;;;18.30;86.50;;;17.95;54.46;101535.34;5075830;28;20193;-71
2023/06/05 08:40:29;;;;;;;4.57;3.00;;;18.50;85.60;;;17.97;54.52;101536.00;5076067;28;20304;-71
2023/06/05 08:43:03;;;;;;;8.87;3.60;;;18.60;86.30;;;18.09;55.29;101534.47;5076001;28;20312;-71
2023/06/05 08:45:36;;;;;;;3.53;2.67;;;18.70;85.80;;;18.19;53.69;101541.28;5075974;28;20212;-71
2023/06/05 08:48:14;;;;;;;5.27;2.93;;;18.80;84.90;;;18.39;51.84;101527.94;5076009;28;20189;-71
2023/06/05 08:50:48;;;;;;;6.70;3.00;;;18.90;83.00;;;18.46;50.16;101526.16;5075992;28;20371;-71
2023/06/05 08:53:24;;;;;;;8.30;3.17;;;19.00;79.70;;;18.58;49.82;101524.66;5075541;28;20635;-72
2023/06/05 08:55:58;;;;;;;4.70;2.77;;;19.30;79.60;;;18.79;50.64;101521.09;5074516;28;20676;-72
2023/06/05 08:58:30;;;;;;;6.97;2.70;;;19.40;79.90;;;18.98;49.24;101512.28;5075849;28;20613;-72
2023/06/05 09:01:02;;;;;;;5.10;3.00;;;19.60;78.30;;;19.07;50.27;101518.41;5075699;28;20209;-72
2023/06/05 09:03:37;;;;;;;8.17;2.80;;;19.60;80.60;;;19.18;50.67;101520.56;5075348;28;20229;-72
2023/06/05 09:06:10;;;;;;;9.50;2.83;;;19.80;79.80;;;19.36;45.90;101518.19;5075727;28;20262;-72
2023/06/05 09:08:44;;;;;;;12.53;2.93;;;19.90;73.70;;;19.43;47.30;101516.38;5075626;28;20200;-71
2023/06/05 09:11:32;;;;;;;7.90;2.97;;;20.00;76.40;;;19.51;48.35;101515.41;5076137;28;20221;-72
2023/06/05 09:14:05;;;;;;;5.33;3.03;;;20.10;77.80;;;19.60;49.13;101515.03;5075640;28;20284;-72
2023/06/05 09:16:41;;;;;;;4.93;2.67;;;20.10;78.10;;;19.77;47.10;101509.25;5075384;28;20308;-72
2023/06/05 09:19:15;;;;;;;8.70;2.60;;;20.30;75.80;;;19.88;47.87;101516.84;5075427;28;20717;-72
2023/06/05 09:21:56;;;;;;;5.93;3.00;;;20.50;75.90;;;20.02;44.13;101521.28;5075512;28;20755;-72
2023/06/05 09:24:30;;;;;;;3.97;2.60;;;20.50;70.80;;;20.16;43.74;101517.59;5075733;28;20225;-71
2023/06/05 09:27:04;;;;;;;8.20;3.03;;;20.70;71.40;;;20.11;45.84;101514.63;5075429;28;20189;-72
2023/06/05 09:29:39;;;;;;;3.83;2.93;;;20.60;73.40;;;20.28;42.38;101507.81;5075226;28;20217;-72
2023/06/05 09:32:17;;;;;;;6.47;2.30;;;20.80;69.90;;;20.40;42.24;101511.63;5074772;28;20705;-72
2023/06/05 09:35:00;;;;;;;6.03;2.77;;;20.90;68.40;;;20.47;41.99;101507.03;5075104;28;20280;-72
2023/06/05 09:37:45;;;;;;;4.23;2.60;;;21.10;68.80;;;20.56;42.63;101503.06;5075069;28;20197;-72
2023/06/05 09:40:19;;;;;;;4.00;2.67;;;21.10;67.50;;;20.72;44.20;101508.09;5074948;28;20209;-72
2023/06/05 09:42:51;;;;;;;4.03;2.60;;;21.30;70.00;;;20.91;42.73;101502.88;5074851;28;20264;-72
2023/06/05 09:45:41;;;;;;;4.90;2.33;;;21.40;65.60;;;20.99;43.37;101503.53;5074905;28;20190;-72
2023/06/05 09:48:18;;;;;;;7.17;2.50;;;21.50;68.60;;;21.27;40.88;101506.00;5075393;28;20213;-72
2023/06/05 09:50:52;;;;;;;2.60;2.40;;;21.70;66.20;;;21.38;41.93;101496.38;5074758;28;20200;-72
2023/06/05 09:53:28;;;;;;;4.73;2.27;;;21.80;67.00;;;21.61;39.38;101508.47;5074790;28;20252;-72
2023/06/05 09:56:02;;;;;;;2.40;2.20;;;22.10;63.60;;;21.63;42.63;101503.66;5074395;28;20185;-72
2023/06/05 09:58:35;;;;;;;5.23;2.60;;;22.10;63.80;;;21.75;37.21;101493.75;5074661;28;20280;-72
2023/06/05 10:01:08;;;;;;;6.23;2.30;;;22.20;59.10;;;21.78;39.53;101488.94;5074517;28;20267;-72
2023/06/05 10:03:45;;;;;;;3.93;2.30;;;22.20;59.00;;;21.88;39.80;101490.16;5074430;28;20311;-72
2023/06/05 10:06:23;;;;;;;9.80;2.53;;;22.30;58.60;;;22.09;37.13;101491.75;5074209;28;20190;-72
2023/06/05 10:08:56;;;;;;;4.00;2.00;;;22.50;56.10;;;22.22;32.45;101497.13;5074441;28;20285;-72
2023/06/05 10:11:30;;;;;;;2.13;1.87;;;22.70;53.20;;;22.33;32.30;101487.44;5074256;28;20190;-72
2023/06/05 10:14:03;;;;;;;3.50;1.90;;;22.70;50.70;;;22.45;34.64;101485.66;5073960;28;20228;-72
2023/06/05 10:16:39;;;;;;;3.90;2.17;;;22.80;51.10;;;22.45;34.65;101481.03;5074042;28;20681;-72
2023/06/05 10:19:15;;;;;;;3.10;1.90;;;22.80;51.60;;;22.63;32.28;101485.75;5074209;28;20193;-72
2023/06/05 10:21:48;;;;;;;2.20;1.67;;;23.00;47.20;;;22.76;30.14;101495.75;5073679;28;20669;-72
2023/06/05 10:24:24;;;;;;;2.83;2.10;;;23.20;44.10;;;22.82;28.84;101478.47;5073796;28;20639;-72
2023/06/05 10:27:44;;;;;;;5.30;1.90;;;23.20;44.40;;;22.96;30.88;101474.56;5074094;28;20625;-72
2023/06/05 10:31:06;;;;;;;3.33;1.60;;;23.40;44.60;;;23.12;30.26;101472.09;5074001;28;20240;-72
2023/06/05 10:33:56;;;;;;;3.37;1.87;;;23.50;45.80;;;23.39;28.51;101472.66;5073834;28;20309;-72
2023/06/05 10:36:59;;;;;;;2.37;1.73;;;23.70;43.00;;;23.51;27.13;101470.88;5073530;28;20666;-72
2023/06/05 10:39:34;;;;;;;3.40;1.90;;;23.80;41.10;;;23.64;27.64;101470.72;5073762;28;20288;-72